Time;durP1;ratioP1;P1;durP2;ratioP2;P2;SDS_P1;SDS_P2;PMS_P1;PMS_P2;Temp;Humidity;BMP_temperature;BMP_pressure;BME280_temperature;BME280_humidity;BME280_pressure;Samples;Min_cycle;Max_cycle;Signal;HPM_P1;HPM_P2
2022/08/02 00:01:33;;;;;;;0.73;0.10;;;21.20;59.20;;;;;;5113080;28;20031;-74
2022/08/02 00:03:58;;;;;;;2.10;0.20;;;21.10;59.10;;;;;;5113925;28;20058;-74
2022/08/02 00:06:25;;;;;;;0.40;0.10;;;21.20;59.10;;;;;;5114176;28;20040;-74
2022/08/02 00:08:52;;;;;;;0.65;0.20;;;21.10;59.10;;;;;;5112904;28;20119;-74
2022/08/02 00:11:18;;;;;;;0.68;0.20;;;21.10;59.10;;;;;;5113003;28;20040;-74
2022/08/02 00:13:44;;;;;;;0.80;0.32;;;21.10;59.10;;;;;;5114168;28;20108;-74
2022/08/02 00:16:10;;;;;;;0.80;0.20;;;21.10;59.10;;;;;;5112914;28;20130;-74
2022/08/02 00:18:36;;;;;;;0.40;0.10;;;21.10;59.00;;;;;;5112977;28;20086;-74
2022/08/02 00:21:02;;;;;;;0.50;0.20;;;21.10;59.10;;;;;;5112983;28;20448;-74
2022/08/02 00:23:27;;;;;;;0.50;0.10;;;21.10;59.10;;;;;;5112608;28;20043;-74
2022/08/02 00:25:53;;;;;;;0.70;0.20;;;21.10;59.10;;;;;;5111953;28;20535;-74
2022/08/02 00:28:19;;;;;;;0.98;0.10;;;21.10;59.00;;;;;;5112530;28;20426;-74
2022/08/02 00:30:44;;;;;;;0.22;0.10;;;21.10;59.00;;;;;;5112635;28;20055;-75
2022/08/02 00:33:10;;;;;;;1.10;0.30;;;21.10;59.00;;;;;;5113768;28;20047;-75
2022/08/02 00:35:36;;;;;;;0.35;0.20;;;21.10;59.00;;;;;;5112448;28;20059;-74
2022/08/02 00:38:03;;;;;;;0.60;0.20;;;21.10;59.00;;;;;;5112457;28;20046;-75
2022/08/02 00:40:29;;;;;;;0.60;0.20;;;21.00;58.90;;;;;;5112368;28;20538;-74
2022/08/02 00:45:41;;;;;;;1.08;0.28;;;21.10;59.00;;;;;;5130381;27;20115;-74
2022/08/02 00:48:09;;;;;;;0.82;0.20;;;21.00;59.00;;;;;;5128934;28;20485;-74
2022/08/02 00:50:35;;;;;;;0.40;0.20;;;21.00;58.90;;;;;;5129205;27;20051;-74
2022/08/02 00:53:01;;;;;;;0.90;0.20;;;21.00;58.90;;;;;;5129197;28;20062;-74
2022/08/02 00:55:28;;;;;;;1.65;0.13;;;21.00;58.90;;;;;;5128885;27;20035;-74
2022/08/02 00:57:53;;;;;;;1.83;0.20;;;21.00;58.90;;;;;;5129141;28;20039;-74
2022/08/02 01:00:20;;;;;;;0.63;0.20;;;21.00;58.90;;;;;;5129945;28;20440;-74
2022/08/02 01:02:45;;;;;;;0.55;0.20;;;21.00;58.90;;;;;;5128751;27;20031;-74
2022/08/02 01:05:11;;;;;;;0.40;0.20;;;21.00;58.90;;;;;;5128487;28;20047;-74
2022/08/02 01:07:38;;;;;;;2.92;0.15;;;21.00;58.80;;;;;;5128963;27;20039;-74
2022/08/02 01:10:05;;;;;;;0.63;0.55;;;21.00;58.80;;;;;;5128602;28;20118;-74
2022/08/02 01:12:30;;;;;;;1.98;0.20;;;21.00;58.90;;;;;;5128610;28;20561;-74
2022/08/02 01:15:00;;;;;;;0.38;0.10;;;21.00;58.90;;;;;;5129797;28;20119;-74
2022/08/02 01:23:33;;;;;;;0.77;0.20;;;21.00;58.90;;;;;;5130368;27;20411;-74
2022/08/02 01:28:48;;;;;;;0.40;0.10;;;20.90;58.80;;;;;;5130434;27;20406;-74
2022/08/02 01:31:20;;;;;;;0.38;0.13;;;20.90;58.80;;;;;;5128985;28;20047;-74
2022/08/02 01:34:18;;;;;;;0.55;0.20;;;21.00;59.50;;;;;;5128993;27;20035;-74
2022/08/02 01:36:48;;;;;;;0.47;0.10;;;20.90;58.70;;;;;;5128855;27;20486;-74
2022/08/02 01:39:18;;;;;;;0.38;0.10;;;20.90;58.70;;;;;;5128866;28;20043;-74
2022/08/02 01:41:45;;;;;;;1.38;0.25;;;20.90;58.70;;;;;;5129115;28;20112;-74
2022/08/02 01:44:12;;;;;;;0.75;0.20;;;20.90;58.70;;;;;;5128830;28;20043;-74
2022/08/02 01:46:41;;;;;;;0.60;0.10;;;20.90;58.70;;;;;;5129943;27;20042;-74
2022/08/02 01:49:11;;;;;;;0.85;0.20;;;20.90;58.70;;;;;;5128922;27;20036;-74
2022/08/02 01:54:29;;;;;;;0.77;0.20;;;20.90;58.70;;;;;;5128376;27;20051;-74
2022/08/02 01:56:56;;;;;;;1.45;0.30;;;20.90;58.60;;;;;;5129799;27;20036;-74
2022/08/02 01:59:23;;;;;;;0.95;0.32;;;20.90;58.60;;;;;;5129828;27;20043;-74
2022/08/02 02:01:52;;;;;;;0.60;0.20;;;20.90;58.60;;;;;;5145535;27;20047;-74
2022/08/02 02:04:19;;;;;;;1.40;0.20;;;20.80;58.50;;;;;;5128432;28;20043;-74
2022/08/02 02:06:46;;;;;;;1.10;0.10;;;20.90;58.60;;;;;;5128421;28;20043;-74
2022/08/02 02:09:14;;;;;;;0.40;0.20;;;20.90;58.60;;;;;;5128336;28;20548;-74
2022/08/02 02:11:42;;;;;;;0.70;0.20;;;20.90;59.30;;;;;;5128522;28;20031;-74
2022/08/02 02:14:10;;;;;;;0.85;0.30;;;20.90;58.60;;;;;;5128470;28;20039;-74
2022/08/02 02:16:39;;;;;;;1.40;0.28;;;20.80;58.50;;;;;;5128005;27;20035;-74
2022/08/02 02:19:08;;;;;;;1.10;0.20;;;20.90;58.60;;;;;;5128149;28;20100;-74
2022/08/02 02:21:33;;;;;;;1.23;0.20;;;20.80;58.50;;;;;;5127914;28;20126;-74
2022/08/02 02:23:59;;;;;;;1.85;0.28;;;20.80;58.50;;;;;;5128313;28;20142;-74
2022/08/02 02:26:27;;;;;;;0.25;0.25;;;20.80;58.50;;;;;;5127605;28;20043;-74
2022/08/02 02:28:54;;;;;;;0.50;0.25;;;20.80;58.50;;;;;;5127897;28;20044;-74
2022/08/02 02:31:20;;;;;;;1.83;0.20;;;20.80;58.50;;;;;;5127727;28;20039;-74
2022/08/02 02:36:29;;;;;;;0.50;0.30;;;20.80;58.50;;;;;;5130375;27;20383;-74
2022/08/02 02:38:58;;;;;;;0.77;0.28;;;20.80;58.50;;;;;;5129025;28;20040;-75
2022/08/02 02:41:25;;;;;;;1.40;0.30;;;20.80;58.50;;;;;;5129034;28;20478;-74
2022/08/02 02:43:57;;;;;;;0.47;0.20;;;20.80;58.50;;;;;;5129152;28;20047;-74
2022/08/02 02:46:24;;;;;;;1.35;0.20;;;20.80;58.40;;;;;;5128958;28;20047;-75
2022/08/02 02:48:50;;;;;;;0.40;0.20;;;20.80;58.40;;;;;;5129138;28;20502;-74
2022/08/02 02:51:18;;;;;;;0.68;0.30;;;20.80;58.40;;;;;;5146373;27;20100;-74
2022/08/02 02:53:47;;;;;;;2.03;0.25;;;20.80;58.40;;;;;;5130067;27;20402;-74
2022/08/02 02:56:14;;;;;;;1.20;0.20;;;20.80;58.30;;;;;;5128693;28;20043;-74
2022/08/02 02:58:40;;;;;;;0.40;0.20;;;20.80;58.30;;;;;;5128773;28;20108;-74
2022/08/02 03:01:36;;;;;;;0.88;0.20;;;20.70;58.30;;;;;;5128618;28;20043;-74
2022/08/02 03:03:53;;;;;;;0.82;0.20;;;20.80;58.30;;;;;;5128289;28;20047;-74
2022/08/02 03:06:19;;;;;;;0.47;0.17;;;20.70;58.30;;;;;;5128796;28;20375;-74
2022/08/02 03:08:45;;;;;;;0.85;0.20;;;20.70;58.30;;;;;;5129743;28;20053;-74
2022/08/02 03:11:11;;;;;;;1.92;0.20;;;20.70;58.20;;;;;;5128392;28;20130;-73
2022/08/02 03:13:38;;;;;;;0.93;0.30;;;20.80;58.30;;;;;;5128584;28;20043;-74
2022/08/02 03:16:04;;;;;;;0.50;0.20;;;20.70;58.20;;;;;;5128307;28;20039;-74
2022/08/02 03:18:36;;;;;;;0.75;0.25;;;20.70;58.20;;;;;;5129653;27;20046;-74
2022/08/02 03:21:05;;;;;;;0.63;0.20;;;20.70;58.20;;;;;;5129577;27;20459;-74
2022/08/02 03:23:31;;;;;;;2.97;0.38;;;20.70;58.20;;;;;;5129409;27;20031;-74
2022/08/02 03:25:57;;;;;;;1.05;0.20;;;20.70;58.20;;;;;;5128311;28;20047;-74
2022/08/02 03:28:23;;;;;;;1.60;0.30;;;20.70;58.20;;;;;;5128014;28;20050;-74
2022/08/02 03:30:49;;;;;;;1.23;0.40;;;20.70;58.20;;;;;;5128320;27;20039;-74
2022/08/02 03:33:15;;;;;;;0.70;0.17;;;20.70;58.20;;;;;;5128205;28;20525;-74
2022/08/02 03:35:42;;;;;;;0.95;0.30;;;20.70;58.20;;;;;;5127613;28;20055;-74
2022/08/02 03:38:09;;;;;;;0.50;0.20;;;20.70;58.20;;;;;;5127866;28;20051;-74
2022/08/02 03:40:35;;;;;;;0.60;0.20;;;20.70;58.20;;;;;;5127979;27;20092;-74
2022/08/02 03:43:01;;;;;;;0.70;0.32;;;20.70;58.20;;;;;;5129246;28;20081;-74
2022/08/02 03:45:31;;;;;;;1.13;0.20;;;20.60;58.10;;;;;;5127687;28;20039;-74
2022/08/02 03:47:58;;;;;;;0.80;0.20;;;20.70;58.20;;;;;;5113534;28;20040;-74
2022/08/02 03:50:25;;;;;;;1.55;0.73;;;20.70;58.20;;;;;;5114117;28;20051;-74
2022/08/02 03:52:51;;;;;;;1.52;0.30;;;20.70;58.20;;;;;;5114001;28;20036;-74
2022/08/02 03:55:17;;;;;;;0.93;0.30;;;20.70;58.20;;;;;;5113681;28;20479;-74
2022/08/02 03:57:43;;;;;;;1.13;0.20;;;20.60;58.10;;;;;;5113841;28;20036;-74
2022/08/02 04:00:16;;;;;;;0.82;0.28;;;20.60;58.10;;;;;;5114001;28;20073;-74
2022/08/02 04:02:41;;;;;;;0.60;0.20;;;20.60;58.90;;;;;;5115100;28;20437;-74
2022/08/02 04:05:08;;;;;;;0.75;0.30;;;20.60;58.10;;;;;;5113681;28;20031;-74
2022/08/02 04:07:33;;;;;;;1.02;0.22;;;20.60;58.10;;;;;;5113839;28;20134;-74
2022/08/02 04:09:59;;;;;;;1.00;0.30;;;20.60;58.10;;;;;;5113569;28;20126;-74
2022/08/02 04:12:24;;;;;;;0.45;0.20;;;20.60;58.20;;;;;;5113777;28;20077;-74
2022/08/02 04:14:50;;;;;;;0.35;0.20;;;20.60;58.10;;;;;;5113381;28;20419;-74
2022/08/02 04:17:19;;;;;;;0.95;0.20;;;20.60;58.10;;;;;;5113354;28;20115;-74
2022/08/02 04:22:30;;;;;;;0.85;0.30;;;20.60;58.10;;;;;;5130251;27;20433;-74
2022/08/02 04:25:00;;;;;;;0.80;0.20;;;20.60;58.20;;;;;;5129254;27;20039;-74
2022/08/02 04:27:27;;;;;;;1.35;0.40;;;20.60;58.10;;;;;;5129039;28;20046;-74
2022/08/02 04:29:53;;;;;;;1.50;0.30;;;20.60;58.10;;;;;;5128985;28;20077;-74
2022/08/02 04:32:20;;;;;;;0.93;0.30;;;20.60;58.10;;;;;;5129105;28;20100;-74
2022/08/02 04:34:46;;;;;;;1.48;0.82;;;20.60;58.10;;;;;;5128927;28;20065;-74
2022/08/02 04:37:12;;;;;;;0.52;0.20;;;20.60;58.10;;;;;;5128957;28;20463;-74
2022/08/02 04:39:40;;;;;;;0.45;0.30;;;20.60;58.20;;;;;;5129047;27;20088;-74
2022/08/02 04:42:06;;;;;;;0.60;0.20;;;20.50;58.80;;;;;;5128627;28;20043;-74
2022/08/02 04:44:32;;;;;;;0.90;0.22;;;20.60;58.10;;;;;;5130116;28;20104;-73
2022/08/02 04:47:01;;;;;;;1.00;0.20;;;20.60;58.10;;;;;;5128580;27;20035;-74
2022/08/02 04:49:27;;;;;;;1.75;0.40;;;20.60;58.10;;;;;;5145880;27;20494;-74
2022/08/02 04:51:53;;;;;;;0.55;0.30;;;20.50;58.10;;;;;;5128655;28;20043;-73
2022/08/02 04:54:19;;;;;;;2.60;0.38;;;20.50;58.10;;;;;;5145756;27;20047;-73
2022/08/02 04:56:44;;;;;;;1.15;0.30;;;20.50;58.10;;;;;;5128585;28;20039;-73
2022/08/02 04:59:11;;;;;;;1.67;0.25;;;20.50;58.10;;;;;;5129701;28;20039;-74
2022/08/02 05:01:38;;;;;;;1.25;0.40;;;20.50;58.10;;;;;;5128288;27;20039;-74
2022/08/02 05:04:04;;;;;;;0.80;0.20;;;20.50;58.10;;;;;;5128365;28;20035;-74
2022/08/02 05:06:30;;;;;;;0.95;0.57;;;20.50;58.10;;;;;;5145374;27;20078;-74
2022/08/02 05:08:56;;;;;;;0.65;0.30;;;20.50;58.10;;;;;;5129724;27;20360;-74
2022/08/02 05:11:23;;;;;;;1.50;0.30;;;20.50;58.10;;;;;;5128403;27;20047;-73
2022/08/02 05:13:49;;;;;;;0.80;0.28;;;20.50;58.10;;;;;;5128070;28;20041;-73
2022/08/02 05:16:15;;;;;;;1.70;0.30;;;20.50;58.10;;;;;;5128300;28;20114;-73
2022/08/02 05:18:41;;;;;;;0.70;0.50;;;20.50;58.10;;;;;;5111131;28;20051;-74
2022/08/02 05:21:06;;;;;;;0.80;0.20;;;20.50;58.10;;;;;;5127595;28;20407;-74
2022/08/02 05:23:32;;;;;;;1.48;0.30;;;20.50;58.10;;;;;;5127768;28;20040;-74
2022/08/02 05:25:58;;;;;;;1.15;0.30;;;20.50;58.10;;;;;;5128162;28;20067;-73
2022/08/02 05:28:24;;;;;;;0.68;0.20;;;20.50;58.10;;;;;;5127955;28;20043;-73
2022/08/02 05:30:50;;;;;;;1.23;0.28;;;20.50;58.10;;;;;;5128086;28;20126;-74
2022/08/02 05:33:16;;;;;;;1.10;0.20;;;20.50;58.10;;;;;;5117953;27;20063;-74
2022/08/02 05:35:42;;;;;;;1.95;0.22;;;20.50;58.10;;;;;;5114287;28;20027;-74
2022/08/02 05:38:08;;;;;;;0.95;0.30;;;20.50;58.10;;;;;;5114062;28;20172;-73
2022/08/02 05:40:34;;;;;;;1.88;0.30;;;20.50;58.10;;;;;;5113883;28;20044;-73
2022/08/02 05:42:59;;;;;;;0.73;0.28;;;20.50;58.10;;;;;;5113846;28;20032;-73
2022/08/02 05:45:25;;;;;;;2.67;0.20;;;20.50;58.10;;;;;;5113803;28;20050;-73
2022/08/02 05:47:51;;;;;;;0.70;0.20;;;20.40;58.00;;;;;;5115110;28;20031;-74
2022/08/02 05:50:17;;;;;;;1.08;0.30;;;20.40;58.00;;;;;;5113976;28;20088;-73
2022/08/02 05:55:32;;;;;;;1.30;0.40;;;20.50;58.10;;;;;;5130362;27;20874;-74
2022/08/02 06:00:39;;;;;;;0.82;0.25;;;20.50;58.10;;;;;;5130365;27;20346;-73
2022/08/02 06:06:06;;;;;;;0.65;0.20;;;20.50;58.10;;;;;;5130351;27;20354;-73
2022/08/02 06:08:38;;;;;;;1.67;0.30;;;20.50;58.10;;;;;;5129229;28;20039;-74
2022/08/02 06:11:08;;;;;;;0.82;0.40;;;20.40;58.00;;;;;;5128971;28;20475;-73
2022/08/02 06:13:34;;;;;;;;;;;20.50;58.10;;;;;;5129329;28;20046;-74
2022/08/02 06:16:01;;;;;;;1.17;0.30;;;20.40;58.00;;;;;;5129086;28;19919;-74
2022/08/02 06:18:27;;;;;;;1.55;0.20;;;20.50;58.10;;;;;;5129116;27;20157;-73
2022/08/02 06:20:57;;;;;;;1.08;0.30;;;20.50;58.10;;;;;;5146269;27;20035;-74
2022/08/02 06:23:24;;;;;;;1.85;0.30;;;20.50;58.10;;;;;;5128725;28;20410;-74
2022/08/02 06:25:51;;;;;;;1.38;0.45;;;20.40;58.00;;;;;;5128664;28;20043;-73
2022/08/02 06:28:19;;;;;;;1.10;0.22;;;20.50;58.10;;;;;;5128730;28;20479;-74
2022/08/02 06:30:45;;;;;;;0.70;0.20;;;20.40;58.00;;;;;;5129788;27;20075;-74
2022/08/02 06:33:11;;;;;;;0.95;0.20;;;20.40;58.00;;;;;;5130041;28;20100;-74
2022/08/02 06:38:46;;;;;;;1.38;0.38;;;20.50;58.10;;;;;;5130380;27;20403;-74
2022/08/02 06:41:14;;;;;;;0.73;0.20;;;20.50;58.10;;;;;;5128921;28;20089;-73
2022/08/02 06:43:59;;;;;;;0.85;0.28;;;20.50;58.10;;;;;;5129048;28;20088;-74
2022/08/02 06:46:26;;;;;;;0.57;0.20;;;20.50;58.10;;;;;;5129214;28;20384;-74
2022/08/02 06:48:51;;;;;;;0.70;0.30;;;20.50;58.10;;;;;;5111949;28;20067;-73
2022/08/02 06:51:17;;;;;;;0.45;0.20;;;20.40;58.00;;;;;;5128841;27;20082;-74
2022/08/02 06:53:44;;;;;;;0.60;0.20;;;20.50;58.10;;;;;;5128720;28;20092;-74
2022/08/02 06:56:10;;;;;;;0.40;0.20;;;20.50;58.10;;;;;;5128606;28;20041;-73
2022/08/02 06:58:36;;;;;;;0.57;0.20;;;20.50;58.10;;;;;;5128998;28;20031;-74
2022/08/02 07:01:05;;;;;;;0.60;0.20;;;20.50;58.10;;;;;;5146099;27;20487;-73
2022/08/02 07:03:32;;;;;;;0.40;0.20;;;20.50;58.10;;;;;;5128866;28;20036;-74
2022/08/02 07:05:58;;;;;;;0.60;0.20;;;20.50;58.10;;;;;;5128793;28;20379;-73
2022/08/02 07:08:25;;;;;;;0.40;0.20;;;20.50;58.10;;;;;;5128681;28;20035;-73
2022/08/02 07:10:50;;;;;;;0.60;0.20;;;20.50;58.10;;;;;;5128448;28;20068;-73
2022/08/02 07:13:16;;;;;;;0.80;0.20;;;20.50;58.10;;;;;;5128631;27;20130;-73
2022/08/02 07:15:42;;;;;;;1.25;0.20;;;20.50;58.10;;;;;;5128585;28;20417;-73
2022/08/02 07:18:13;;;;;;;0.60;0.30;;;20.50;58.10;;;;;;5129605;27;20038;-73
2022/08/02 07:20:40;;;;;;;0.50;0.22;;;20.50;58.10;;;;;;5128303;28;20031;-73
2022/08/02 07:23:06;;;;;;;1.00;0.25;;;20.50;58.10;;;;;;5128571;28;20194;-74
2022/08/02 07:25:32;;;;;;;1.15;0.32;;;20.50;58.10;;;;;;5128189;28;20081;-73
2022/08/02 07:27:57;;;;;;;0.80;0.28;;;20.50;58.10;;;;;;5128331;28;20043;-73
2022/08/02 07:30:23;;;;;;;0.80;0.28;;;20.50;58.10;;;;;;5128056;28;20399;-73
2022/08/02 07:32:49;;;;;;;0.95;0.50;;;20.50;58.10;;;;;;5128001;28;20039;-73
2022/08/02 07:35:14;;;;;;;1.08;0.20;;;20.50;58.10;;;;;;5127958;28;20053;-73
2022/08/02 07:37:42;;;;;;;1.48;0.40;;;20.50;58.00;;;;;;5127542;28;20050;-73
2022/08/02 07:40:12;;;;;;;1.20;0.40;;;20.50;58.10;;;;;;5128153;28;20463;-73
2022/08/02 07:42:38;;;;;;;1.02;0.30;;;20.50;58.00;;;;;;5127792;28;20039;-73
2022/08/02 07:45:04;;;;;;;0.93;0.20;;;20.50;58.10;;;;;;5128059;28;20031;-73
2022/08/02 07:47:30;;;;;;;1.40;0.20;;;20.50;58.00;;;;;;5127956;28;20085;-73
2022/08/02 07:49:56;;;;;;;0.45;0.20;;;20.50;58.00;;;;;;5114135;28;20065;-73
2022/08/02 07:52:21;;;;;;;2.15;0.43;;;20.60;58.10;;;;;;5114188;28;20134;-73
2022/08/02 07:54:47;;;;;;;1.63;0.30;;;20.50;58.10;;;;;;5115150;28;20394;-73
2022/08/02 07:57:13;;;;;;;0.25;0.20;;;20.50;58.00;;;;;;5113821;28;20044;-73
2022/08/02 07:59:38;;;;;;;0.40;0.20;;;20.60;58.10;;;;;;5113848;28;20043;-73
2022/08/02 08:02:04;;;;;;;0.57;0.30;;;20.60;58.20;;;;;;5115102;28;20043;-73
2022/08/02 08:04:29;;;;;;;1.23;0.45;;;20.60;58.10;;;;;;5113770;28;20479;-73
2022/08/02 08:06:55;;;;;;;0.50;0.20;;;20.60;58.10;;;;;;5113659;28;20040;-73
2022/08/02 08:09:21;;;;;;;0.60;0.30;;;20.60;58.10;;;;;;5113814;28;20054;-73
2022/08/02 08:11:47;;;;;;;1.48;0.90;;;20.60;58.10;;;;;;5114948;28;20063;-73
2022/08/02 08:14:13;;;;;;;0.95;0.20;;;20.60;58.10;;;;;;5113754;28;20040;-73
2022/08/02 08:16:38;;;;;;;0.70;0.28;;;20.60;58.80;;;;;;5113483;28;20039;-73
2022/08/02 08:19:04;;;;;;;0.50;0.30;;;20.60;58.10;;;;;;5113424;28;20036;-73
2022/08/02 08:21:30;;;;;;;0.65;0.20;;;20.60;58.10;;;;;;5113499;28;20051;-73
2022/08/02 08:23:56;;;;;;;1.20;0.20;;;20.60;58.10;;;;;;5096341;28;20039;-73
2022/08/02 08:26:22;;;;;;;0.43;0.20;;;20.60;58.10;;;;;;5113325;28;20039;-73
2022/08/02 08:28:47;;;;;;;0.40;0.20;;;20.60;58.10;;;;;;5113216;28;20085;-73
2022/08/02 08:31:13;;;;;;;0.30;0.20;;;20.60;58.10;;;;;;5113536;28;20024;-73
2022/08/02 08:33:39;;;;;;;1.05;0.30;;;20.60;58.10;;;;;;5114463;28;20503;-73
2022/08/02 08:36:05;;;;;;;1.80;0.38;;;20.70;58.20;;;;;;5113424;28;20044;-73
2022/08/02 08:38:30;;;;;;;0.88;0.20;;;20.60;58.10;;;;;;5114093;28;20051;-73
2022/08/02 08:40:56;;;;;;;0.50;0.20;;;20.70;58.10;;;;;;5113006;28;20510;-73
2022/08/02 08:43:22;;;;;;;1.02;0.47;;;20.70;58.10;;;;;;5113263;28;20105;-73
2022/08/02 08:45:48;;;;;;;0.85;0.20;;;20.70;58.10;;;;;;5112996;28;20376;-73
2022/08/02 08:48:15;;;;;;;1.02;0.30;;;20.70;58.00;;;;;;5113156;28;20158;-73
2022/08/02 08:50:49;;;;;;;0.68;0.20;;;20.70;58.00;;;;;;5114077;28;20044;-73
2022/08/02 08:53:16;;;;;;;1.33;0.20;;;20.70;58.70;;;;;;5112872;28;20046;-73
2022/08/02 08:55:43;;;;;;;0.68;0.20;;;20.70;58.00;;;;;;5112657;28;20032;-72
2022/08/02 08:58:10;;;;;;;1.13;0.30;;;20.70;58.70;;;;;;5112660;28;20616;-73
2022/08/02 09:00:36;;;;;;;0.43;0.20;;;20.70;57.90;;;;;;5111583;28;20036;-72
2022/08/02 09:03:04;;;;;;;0.75;0.20;;;20.70;57.90;;;;;;5112621;28;20035;-72
2022/08/02 09:05:33;;;;;;;0.80;0.20;;;20.70;57.90;;;;;;5095696;28;20044;-73
2022/08/02 09:07:59;;;;;;;1.20;0.30;;;20.80;57.90;;;;;;5113845;28;20081;-72
2022/08/02 09:10:45;;;;;;;0.75;0.30;;;20.80;57.80;;;;;;5112427;28;20418;-72
2022/08/02 09:15:56;;;;;;;1.17;0.30;;;20.80;57.80;;;;;;5130346;27;20390;-72
2022/08/02 09:21:10;;;;;;;0.85;0.20;;;20.90;57.70;;;;;;5109736;27;20322;-72
2022/08/02 09:29:02;;;;;;;1.05;0.30;;;21.00;57.30;;;;;;5130408;27;20414;-72
2022/08/02 09:31:28;;;;;;;0.60;0.30;;;21.10;57.20;;;;;;5128890;28;20071;-72
2022/08/02 09:33:55;;;;;;;1.15;0.20;;;21.10;57.10;;;;;;5128997;28;20046;-72
2022/08/02 09:36:22;;;;;;;0.52;0.20;;;21.20;57.10;;;;;;5146401;27;20035;-72
2022/08/02 09:41:40;;;;;;;0.85;0.20;;;21.20;57.00;;;;;;5089432;28;20417;-72
2022/08/02 09:44:07;;;;;;;1.70;0.28;;;21.20;57.00;;;;;;5088162;28;20048;-72
2022/08/02 09:49:20;;;;;;;0.98;0.55;;;21.30;56.90;;;;;;5192930;27;20391;-72
2022/08/02 09:54:27;;;;;;;1.15;0.40;;;21.30;56.80;;;;;;5130307;27;20383;-73
2022/08/02 09:56:55;;;;;;;1.08;0.20;;;21.30;56.70;;;;;;5128967;28;20039;-72
2022/08/02 09:59:23;;;;;;;0.93;0.40;;;21.30;56.70;;;;;;5130467;27;20043;-72
2022/08/02 10:01:50;;;;;;;0.65;0.20;;;21.30;56.70;;;;;;5128844;28;20051;-72
2022/08/02 10:04:22;;;;;;;0.80;0.20;;;21.30;56.70;;;;;;5128971;28;20394;-72
2022/08/02 10:06:49;;;;;;;1.17;0.20;;;21.40;56.70;;;;;;5129036;28;20118;-72
2022/08/02 10:09:15;;;;;;;1.17;0.40;;;21.30;56.70;;;;;;5128816;28;20066;-72
2022/08/02 10:11:41;;;;;;;0.77;0.25;;;21.30;56.70;;;;;;5128992;27;20050;-72
2022/08/02 10:14:09;;;;;;;0.57;0.28;;;21.40;56.70;;;;;;5129908;28;20051;-72
2022/08/02 10:16:38;;;;;;;1.27;0.52;;;21.40;56.70;;;;;;5128919;28;20039;-72
2022/08/02 10:19:04;;;;;;;1.08;0.20;;;21.40;56.70;;;;;;5128864;27;20115;-73
2022/08/02 10:21:37;;;;;;;0.70;0.20;;;21.40;56.80;;;;;;5128727;28;20545;-73
2022/08/02 10:24:07;;;;;;;0.50;0.20;;;21.40;56.80;;;;;;5128862;28;20039;-72
2022/08/02 10:26:34;;;;;;;0.88;0.25;;;21.40;56.80;;;;;;5128745;28;20490;-73
2022/08/02 10:29:00;;;;;;;1.27;0.50;;;21.40;56.80;;;;;;5129643;27;20040;-72
2022/08/02 10:31:33;;;;;;;1.70;0.30;;;21.40;56.90;;;;;;5128323;28;20593;-73
2022/08/02 10:34:01;;;;;;;0.60;0.30;;;21.40;56.90;;;;;;5128265;28;20048;-73
2022/08/02 10:36:32;;;;;;;0.50;0.20;;;21.40;56.80;;;;;;5128276;27;20050;-73
2022/08/02 10:39:00;;;;;;;0.60;0.30;;;21.40;56.90;;;;;;5128222;28;20039;-73
2022/08/02 10:52:33;;;;;;;0.82;0.32;;;21.40;56.90;;;;;;5130343;27;20383;-73
2022/08/02 10:55:08;;;;;;;0.73;0.30;;;21.40;57.00;;;;;;5129016;28;20555;-73
2022/08/02 10:57:35;;;;;;;0.90;0.40;;;21.40;57.10;;;;;;5128985;28;20046;-72
2022/08/02 11:00:09;;;;;;;0.85;0.30;;;21.40;57.10;;;;;;5146464;27;20035;-72
2022/08/02 11:02:40;;;;;;;0.73;0.35;;;21.40;57.20;;;;;;5128840;28;20039;-73
2022/08/02 11:05:08;;;;;;;;;;;21.40;57.20;;;;;;5129273;28;20097;-73
2022/08/02 11:07:40;;;;;;;0.60;0.30;;;21.40;57.20;;;;;;5146075;27;20435;-73
2022/08/02 11:13:12;;;;;;;0.40;0.30;;;21.40;57.30;;;;;;5130409;27;20378;-72
2022/08/02 11:16:00;;;;;;;0.77;0.28;;;21.40;57.30;;;;;;5146280;27;20554;-72
2022/08/02 11:21:30;;;;;;;0.75;0.20;;;21.40;57.40;;;;;;5130305;27;20383;-73
2022/08/02 11:24:23;;;;;;;0.73;0.20;;;21.40;57.50;;;;;;5129211;27;20043;-73
2022/08/02 11:26:49;;;;;;;0.75;0.30;;;21.40;57.50;;;;;;5128948;28;20084;-73
2022/08/02 11:29:15;;;;;;;1.00;0.30;;;21.40;57.60;;;;;;5128872;28;20035;-73
2022/08/02 11:31:42;;;;;;;0.77;0.32;;;21.40;57.60;;;;;;5127368;28;20394;-73
2022/08/02 11:34:10;;;;;;;1.23;0.35;;;21.40;57.70;;;;;;5115857;27;20399;-73
2022/08/02 11:36:46;;;;;;;1.15;0.50;;;21.50;57.80;;;;;;5108530;28;20418;-73
2022/08/02 11:39:14;;;;;;;0.70;0.28;;;21.50;57.80;;;;;;5140464;27;20039;-73
2022/08/02 11:41:41;;;;;;;0.95;0.30;;;21.50;57.80;;;;;;5128722;28;20058;-73
2022/08/02 11:44:07;;;;;;;0.47;0.20;;;21.50;57.80;;;;;;5128919;28;20097;-73
2022/08/02 11:46:33;;;;;;;0.77;0.47;;;21.50;57.90;;;;;;5128273;28;20058;-73
2022/08/02 11:49:11;;;;;;;0.45;0.25;;;21.50;57.90;;;;;;5128600;27;20039;-73
2022/08/02 11:51:37;;;;;;;0.90;0.50;;;21.50;57.90;;;;;;5128701;27;20042;-73
2022/08/02 11:54:03;;;;;;;0.90;0.50;;;21.50;57.90;;;;;;5128530;28;20549;-73
2022/08/02 11:56:31;;;;;;;1.60;0.30;;;21.50;58.00;;;;;;5128322;28;20114;-73
2022/08/02 11:59:06;;;;;;;1.15;0.50;;;21.50;58.00;;;;;;5128577;28;20039;-73
2022/08/02 12:01:34;;;;;;;0.30;0.20;;;21.50;58.00;;;;;;5128311;28;20100;-73
2022/08/02 12:04:05;;;;;;;0.55;0.30;;;21.50;58.10;;;;;;5128311;28;20517;-73
2022/08/02 12:06:32;;;;;;;1.10;0.40;;;21.50;58.10;;;;;;5129389;27;20165;-73
2022/08/02 12:11:40;;;;;;;0.50;0.30;;;21.50;58.20;;;;;;5089406;27;20364;-73
2022/08/02 12:14:06;;;;;;;0.80;0.35;;;21.50;58.10;;;;;;5088177;28;20136;-73
2022/08/02 12:19:22;;;;;;;0.90;0.30;;;21.50;58.30;;;;;;5089140;28;20048;-73
2022/08/02 12:22:06;;;;;;;0.50;0.35;;;21.50;58.30;;;;;;5089144;28;20033;-73
2022/08/02 12:24:32;;;;;;;0.52;0.20;;;21.50;58.20;;;;;;5089422;28;20395;-73
2022/08/02 12:26:58;;;;;;;0.95;0.50;;;21.50;58.30;;;;;;5087897;28;20036;-73
2022/08/02 12:29:33;;;;;;;2.20;0.30;;;21.50;58.40;;;;;;5089133;28;20028;-73
2022/08/02 12:31:59;;;;;;;0.95;0.32;;;21.60;58.40;;;;;;5087943;28;20059;-73
2022/08/02 12:34:26;;;;;;;0.88;0.30;;;21.60;58.50;;;;;;5089076;28;20492;-73
2022/08/02 12:37:09;;;;;;;1.45;0.40;;;21.60;58.40;;;;;;5089182;28;20418;-73
2022/08/02 12:39:42;;;;;;;0.75;0.30;;;21.60;58.40;;;;;;5088006;28;20539;-73
2022/08/02 12:42:10;;;;;;;1.38;0.40;;;21.60;58.60;;;;;;5087858;28;20388;-73
2022/08/02 12:44:37;;;;;;;0.65;0.38;;;21.60;58.60;;;;;;5087543;28;20568;-72
2022/08/02 12:47:06;;;;;;;0.60;0.38;;;21.60;58.70;;;;;;5087579;28;20044;-72
2022/08/02 12:49:32;;;;;;;0.50;0.32;;;21.60;58.60;;;;;;5087435;28;20106;-73
2022/08/02 12:51:58;;;;;;;0.50;0.20;;;21.60;58.70;;;;;;5087244;28;20491;-72
2022/08/02 12:54:27;;;;;;;1.00;0.32;;;21.60;58.70;;;;;;5087407;28;20095;-73
2022/08/02 12:56:52;;;;;;;0.50;0.30;;;21.60;58.70;;;;;;5087536;28;20036;-72
2022/08/02 12:59:33;;;;;;;0.80;0.30;;;21.60;58.80;;;;;;5087565;28;20047;-73
2022/08/02 13:02:02;;;;;;;1.58;0.50;;;21.60;58.80;;;;;;5087251;28;20045;-73
2022/08/02 13:04:28;;;;;;;0.70;0.30;;;21.60;58.90;;;;;;5087208;28;20036;-73
2022/08/02 13:06:53;;;;;;;0.73;0.50;;;21.60;58.90;;;;;;5087444;28;20033;-73
2022/08/02 13:09:21;;;;;;;0.98;0.40;;;21.70;59.10;;;;;;5086754;28;20062;-72
2022/08/02 13:11:47;;;;;;;0.68;0.40;;;21.60;59.10;;;;;;5087013;28;20044;-72
2022/08/02 13:14:13;;;;;;;0.98;0.32;;;21.60;59.10;;;;;;5086968;28;20124;-73
2022/08/02 13:16:44;;;;;;;0.70;0.40;;;21.60;59.20;;;;;;5087284;28;20572;-73
2022/08/02 13:19:11;;;;;;;1.58;0.30;;;21.70;59.20;;;;;;5087128;28;20044;-73
2022/08/02 13:21:37;;;;;;;0.80;0.40;;;21.60;59.20;;;;;;5081137;28;20453;-73
2022/08/02 13:24:03;;;;;;;0.70;0.30;;;21.70;59.20;;;;;;5073343;28;20063;-73
2022/08/02 13:26:29;;;;;;;1.05;0.35;;;21.70;59.30;;;;;;5073265;28;20115;-73
2022/08/02 13:28:54;;;;;;;1.00;0.40;;;21.70;59.30;;;;;;5073530;28;20044;-72
2022/08/02 13:31:20;;;;;;;0.80;0.35;;;21.70;59.30;;;;;;5073175;28;20123;-74
2022/08/02 13:33:46;;;;;;;0.68;0.38;;;21.70;59.30;;;;;;5073122;28;20044;-73
2022/08/02 13:36:11;;;;;;;1.30;0.30;;;21.70;59.40;;;;;;5074577;28;20048;-73
2022/08/02 13:38:37;;;;;;;1.15;0.30;;;21.70;59.30;;;;;;5073134;28;20639;-73
2022/08/02 13:41:10;;;;;;;0.60;0.35;;;21.70;59.30;;;;;;5073060;28;20036;-73
2022/08/02 13:43:36;;;;;;;1.05;0.45;;;21.70;59.40;;;;;;5072828;28;20120;-73
2022/08/02 13:46:04;;;;;;;0.77;0.30;;;21.70;59.40;;;;;;5073196;28;20044;-73
2022/08/02 13:48:30;;;;;;;1.00;0.50;;;21.70;59.40;;;;;;5072941;28;20043;-73
2022/08/02 13:50:55;;;;;;;0.90;0.50;;;21.70;59.40;;;;;;5072025;28;20049;-73
2022/08/02 13:53:21;;;;;;;2.97;0.30;;;21.70;59.40;;;;;;5077605;28;20052;-73
2022/08/02 13:55:47;;;;;;;0.88;0.40;;;21.70;59.40;;;;;;5072697;28;20040;-73
2022/08/02 13:58:12;;;;;;;0.60;0.30;;;21.70;59.50;;;;;;5072906;28;20119;-73
2022/08/02 14:00:38;;;;;;;0.80;0.40;;;21.80;59.50;;;;;;5072709;28;20597;-73
2022/08/02 14:03:05;;;;;;;0.95;0.40;;;21.80;59.50;;;;;;5072692;28;20047;-73